Información del aeropuerto GCRR

Información de pista
Pista 03 Longitud 7874 ft Anchura 148 ft
Elevación 18 ft Umbral 0 ft Rumbo 27
Pista 21 Longitud 7874 ft Anchura 148 ft
Elevación 47 ft Umbral 0 ft Rumbo 207
Frecuencias del aeropuerto
Tipo APP Nombre CANARIAS A Frecuencia 129.3 MHZ
Tipo ATIS Nombre ATIS Frecuencia 118.625 MHZ
Tipo GND Nombre GND Frecuencia 121.8 MHZ
Tipo TWR Nombre TWR Frecuencia 120.7 MHZ
Radioayudas del aeropuerto
Tipo VOR-DME Nombre Lanzarote Frecuencia 113700 KHZ
Tipo NDB Nombre Lanzarote Frecuencia 310 KHZ
Tipo VOR-DME Nombre Lanzarote Frecuencia 115200 KHZ
Tipo TACAN Nombre Lanzarote Frecuencia 114700 KHZ
Información meteorológica del aeropuerto y NOTAM
ADDS - METARS form results

(2157 UTC 19 May 2022)
Data provider http://aviationweather.gov/metar/data/
 
METAR text: GCRR 192130Z 01013KT 340V060 9999 FEW020 21/17 Q1014
Conditions at: GCRR (ARRECIFE/LANZARO, ES) observed 2130 UTC 19 May 2022
Temperature: 21.0°C (70°F)
Dewpoint: 17.0°C (63°F) [RH = 78%]
Pressure (altimeter): 29.94 inches Hg (1014.0 mb)
Winds: from the N (10 degrees) at 15 MPH (13 knots; 6.7 m/s)
Visibility: 6 or more miles (10+ km)
Ceiling: at least 12,000 feet AGL
Clouds: few clouds at 2000 feet AGL
Weather: no significant weather observed at this time

METAR text: GCRR 192100Z VRB08G19KT 9999 FEW020 21/17 Q1013 WS R03
Conditions at: GCRR (ARRECIFE/LANZARO, ES) observed 2100 UTC 19 May 2022
Temperature: 21.0°C (70°F)
Dewpoint: 17.0°C (63°F) [RH = 78%]
Pressure (altimeter): 29.91 inches Hg (1013.0 mb)
Winds: variable direction winds at 9 MPH (8 knots; 4.1 m/s)
gusting to 22 MPH (19 knots; 9.8 m/s)
Visibility: 6 or more miles (10+ km)
Ceiling: at least 12,000 feet AGL
Clouds: few clouds at 2000 feet AGL
Weather: no significant weather observed at this time

Forecast for: AMD
Text: TAF AMD GCRR 192117Z 1921/2021 35020KT 9999 FEW020 TX28/2014Z TN19/2006Z
Forecast period: 2100 UTC 19 May 2022 to 2100 UTC 20 May 2022
Forecast type: FROM: standard forecast or significant change
Winds: from the N (350 degrees) at 23 MPH (20 knots; 10.3 m/s)
Visibility: 6 or more miles (10+ km)
Ceiling: at least 12,000 feet AGL
Clouds: few clouds at 2000 feet AGL
Weather: no significant weather forecast for this period
Text: PROB40
Forecast period: 2100 to 2300 UTC 19 May 2022
Forecast type: TEMPORARY: The following changes expected for less than half the time period
Winds: from the NNE (30 degrees) at 12 MPH (10 knots; 5.1 m/s)
Visibility: missing
Ceiling: unknown
Clouds: missing
Weather: no significant weather forecast for this period
Text: TEMPO 1921/1923 03010KT
Forecast period: 2100 UTC 19 May 2022 to 2100 UTC 20 May 2022
Forecast type: TEMPORARY: The following changes expected for less than half the time period
Winds: from the N (360 degrees) at 25 MPH (22 knots; 11.3 m/s)
gusting to 37 MPH (32 knots; 16.5 m/s)
Visibility: missing
Ceiling: unknown
Clouds: missing
Weather: no significant weather forecast for this period